Sonseca, Spain
Current Conditions -  °F | °C
As of 2:00 PM on Saturday 25 Oct 2014 (Local Time) from LEGT Reporting Station
Clear Clear  
Wind Chill: 77°   Ceiling: Unl
Heat Index: 78°   Visibility: 6mi
Dew Point: 43°   Wind: 0mph
Humidity: 29%   Direction: NA
Pressure: 30.18"   Gusts: NA
Location:  39.68°N, 3.97°W
Report Text: LEGT 251200Z 00000KT CAVOK 25/06 Q1022
Loading
Personal Weather Stations






























Interactive Weather Map
Tropical Storm Tracking
New forecast layout! Learn more

10-Day Weather Forecast

Advertisements
Track Severe Weather on mobile